sensor_id;sensor_type;location;lat;lon;timestamp;temperature;humidity
7516;DHT22;3799;47.184;8.538;2023-07-29T00:00:47;19.80;99.90
7516;DHT22;3799;47.184;8.538;2023-07-29T00:03:17;19.50;99.90
7516;DHT22;3799;47.184;8.538;2023-07-29T00:05:44;19.60;99.90
7516;DHT22;3799;47.184;8.538;2023-07-29T00:08:12;19.90;99.90
7516;DHT22;3799;47.184;8.538;2023-07-29T00:10:39;19.40;99.90
7516;DHT22;3799;47.184;8.538;2023-07-29T00:13:07;19.70;99.90
7516;DHT22;3799;47.184;8.538;2023-07-29T00:15:34;19.80;99.90
7516;DHT22;3799;47.184;8.538;2023-07-29T00:18:02;19.40;99.90
7516;DHT22;3799;47.184;8.538;2023-07-29T00:20:29;19.60;99.90
7516;DHT22;3799;47.184;8.538;2023-07-29T00:22:56;19.50;99.90
7516;DHT22;3799;47.184;8.538;2023-07-29T00:25:25;19.50;99.90
7516;DHT22;3799;47.184;8.538;2023-07-29T00:27:55;19.60;99.90
7516;DHT22;3799;47.184;8.538;2023-07-29T00:30:23;19.50;99.90
7516;DHT22;3799;47.184;8.538;2023-07-29T00:32:51;19.50;99.90
7516;DHT22;3799;47.184;8.538;2023-07-29T00:35:18;19.70;99.90
7516;DHT22;3799;47.184;8.538;2023-07-29T00:37:45;19.40;99.90
7516;DHT22;3799;47.184;8.538;2023-07-29T00:40:16;19.40;99.90
7516;DHT22;3799;47.184;8.538;2023-07-29T00:42:46;19.40;99.90
7516;DHT22;3799;47.184;8.538;2023-07-29T00:45:13;19.40;99.90
7516;DHT22;3799;47.184;8.538;2023-07-29T00:47:41;19.50;99.90
7516;DHT22;3799;47.184;8.538;2023-07-29T00:50:13;19.40;99.90
7516;DHT22;3799;47.184;8.538;2023-07-29T00:52:41;19.30;99.90
7516;DHT22;3799;47.184;8.538;2023-07-29T00:55:09;19.30;99.90
7516;DHT22;3799;47.184;8.538;2023-07-29T00:57:36;19.30;99.90
7516;DHT22;3799;47.184;8.538;2023-07-29T01:00:04;19.10;99.90
7516;DHT22;3799;47.184;8.538;2023-07-29T01:02:31;19.30;99.90
7516;DHT22;3799;47.184;8.538;2023-07-29T01:05:00;19.00;99.90
7516;DHT22;3799;47.184;8.538;2023-07-29T01:13:01;19.00;99.90
7516;DHT22;3799;47.184;8.538;2023-07-29T01:15:54;19.40;99.90
7516;DHT22;3799;47.184;8.538;2023-07-29T01:18:26;19.10;99.90
7516;DHT22;3799;47.184;8.538;2023-07-29T01:20:59;18.90;99.90
7516;DHT22;3799;47.184;8.538;2023-07-29T01:23:32;19.10;99.90
7516;DHT22;3799;47.184;8.538;2023-07-29T01:26:00;19.10;99.90
7516;DHT22;3799;47.184;8.538;2023-07-29T01:28:28;19.00;99.90
7516;DHT22;3799;47.184;8.538;2023-07-29T01:31:10;19.30;99.90
7516;DHT22;3799;47.184;8.538;2023-07-29T01:34:45;19.20;99.90
7516;DHT22;3799;47.184;8.538;2023-07-29T01:36:47;19.00;99.90
7516;DHT22;3799;47.184;8.538;2023-07-29T01:39:17;19.10;99.90
7516;DHT22;3799;47.184;8.538;2023-07-29T01:41:45;19.10;99.90
7516;DHT22;3799;47.184;8.538;2023-07-29T01:44:13;18.80;99.90
7516;DHT22;3799;47.184;8.538;2023-07-29T01:46:40;19.00;99.90
7516;DHT22;3799;47.184;8.538;2023-07-29T01:49:07;19.00;99.90
7516;DHT22;3799;47.184;8.538;2023-07-29T01:51:37;19.20;99.90
7516;DHT22;3799;47.184;8.538;2023-07-29T01:54:05;18.80;99.90
7516;DHT22;3799;47.184;8.538;2023-07-29T01:56:32;18.80;99.90
7516;DHT22;3799;47.184;8.538;2023-07-29T01:58:59;18.80;99.90
7516;DHT22;3799;47.184;8.538;2023-07-29T02:01:27;18.90;99.90
7516;DHT22;3799;47.184;8.538;2023-07-29T02:03:54;19.00;99.90
7516;DHT22;3799;47.184;8.538;2023-07-29T02:06:22;19.00;99.90
7516;DHT22;3799;47.184;8.538;2023-07-29T02:08:51;18.90;99.90
7516;DHT22;3799;47.184;8.538;2023-07-29T02:11:18;18.90;99.90
7516;DHT22;3799;47.184;8.538;2023-07-29T02:13:47;19.10;99.90
7516;DHT22;3799;47.184;8.538;2023-07-29T02:16:17;19.00;99.90
7516;DHT22;3799;47.184;8.538;2023-07-29T02:18:44;18.80;99.90
7516;DHT22;3799;47.184;8.538;2023-07-29T02:21:12;18.90;99.90
7516;DHT22;3799;47.184;8.538;2023-07-29T02:23:39;19.00;99.90
7516;DHT22;3799;47.184;8.538;2023-07-29T02:26:06;18.90;99.90
7516;DHT22;3799;47.184;8.538;2023-07-29T02:28:33;18.90;99.90
7516;DHT22;3799;47.184;8.538;2023-07-29T02:31:14;18.90;99.90
7516;DHT22;3799;47.184;8.538;2023-07-29T02:33:43;19.00;99.90
7516;DHT22;3799;47.184;8.538;2023-07-29T02:36:12;18.90;99.90
7516;DHT22;3799;47.184;8.538;2023-07-29T02:38:40;18.90;99.90
7516;DHT22;3799;47.184;8.538;2023-07-29T02:41:08;18.80;99.90
7516;DHT22;3799;47.184;8.538;2023-07-29T02:43:36;18.80;99.90
7516;DHT22;3799;47.184;8.538;2023-07-29T02:46:04;18.90;99.90
7516;DHT22;3799;47.184;8.538;2023-07-29T02:48:31;18.50;99.90
7516;DHT22;3799;47.184;8.538;2023-07-29T02:50:58;18.80;99.90
7516;DHT22;3799;47.184;8.538;2023-07-29T02:53:26;18.50;99.90
7516;DHT22;3799;47.184;8.538;2023-07-29T02:55:53;18.50;99.90
7516;DHT22;3799;47.184;8.538;2023-07-29T02:58:21;18.80;99.90
7516;DHT22;3799;47.184;8.538;2023-07-29T03:00:48;18.60;99.90
7516;DHT22;3799;47.184;8.538;2023-07-29T03:03:16;18.20;99.90
7516;DHT22;3799;47.184;8.538;2023-07-29T03:05:43;18.20;99.90
7516;DHT22;3799;47.184;8.538;2023-07-29T03:08:13;18.70;99.90
7516;DHT22;3799;47.184;8.538;2023-07-29T03:10:42;18.60;99.90
7516;DHT22;3799;47.184;8.538;2023-07-29T03:13:11;18.30;99.90
7516;DHT22;3799;47.184;8.538;2023-07-29T03:15:38;18.40;99.90
7516;DHT22;3799;47.184;8.538;2023-07-29T03:18:05;18.50;99.90
7516;DHT22;3799;47.184;8.538;2023-07-29T03:20:33;18.70;99.90
7516;DHT22;3799;47.184;8.538;2023-07-29T03:23:00;18.50;99.90
7516;DHT22;3799;47.184;8.538;2023-07-29T03:25:30;18.60;99.90
7516;DHT22;3799;47.184;8.538;2023-07-29T03:27:57;18.30;99.90
7516;DHT22;3799;47.184;8.538;2023-07-29T03:30:24;18.40;99.90
7516;DHT22;3799;47.184;8.538;2023-07-29T03:32:53;18.30;99.90
7516;DHT22;3799;47.184;8.538;2023-07-29T03:35:23;18.40;99.90
7516;DHT22;3799;47.184;8.538;2023-07-29T03:37:51;18.40;99.90
7516;DHT22;3799;47.184;8.538;2023-07-29T03:40:19;18.20;99.90
7516;DHT22;3799;47.184;8.538;2023-07-29T03:42:46;18.60;99.90
7516;DHT22;3799;47.184;8.538;2023-07-29T03:45:13;18.40;99.90
7516;DHT22;3799;47.184;8.538;2023-07-29T03:47:40;18.60;99.90
7516;DHT22;3799;47.184;8.538;2023-07-29T03:50:08;18.20;99.90
7516;DHT22;3799;47.184;8.538;2023-07-29T03:52:35;18.40;99.90
7516;DHT22;3799;47.184;8.538;2023-07-29T03:55:02;18.20;99.90
7516;DHT22;3799;47.184;8.538;2023-07-29T03:57:30;18.30;99.90
7516;DHT22;3799;47.184;8.538;2023-07-29T03:59:57;18.40;99.90
7516;DHT22;3799;47.184;8.538;2023-07-29T04:02:30;18.20;99.90
7516;DHT22;3799;47.184;8.538;2023-07-29T04:04:57;18.40;99.90
7516;DHT22;3799;47.184;8.538;2023-07-29T04:07:25;18.30;99.90
7516;DHT22;3799;47.184;8.538;2023-07-29T04:09:52;18.20;99.90
7516;DHT22;3799;47.184;8.538;2023-07-29T04:12:20;18.50;99.90
7516;DHT22;3799;47.184;8.538;2023-07-29T04:14:49;18.10;99.90
7516;DHT22;3799;47.184;8.538;2023-07-29T04:17:17;18.20;99.90
7516;DHT22;3799;47.184;8.538;2023-07-29T04:19:45;18.50;99.90
7516;DHT22;3799;47.184;8.538;2023-07-29T04:22:16;18.40;99.90
7516;DHT22;3799;47.184;8.538;2023-07-29T04:24:43;18.30;99.90
7516;DHT22;3799;47.184;8.538;2023-07-29T04:27:11;18.30;99.90
7516;DHT22;3799;47.184;8.538;2023-07-29T04:29:38;18.60;99.90
7516;DHT22;3799;47.184;8.538;2023-07-29T04:32:05;18.60;99.90
7516;DHT22;3799;47.184;8.538;2023-07-29T04:34:33;18.60;99.90
7516;DHT22;3799;47.184;8.538;2023-07-29T04:37:00;18.50;99.90
7516;DHT22;3799;47.184;8.538;2023-07-29T04:39:30;18.70;99.90
7516;DHT22;3799;47.184;8.538;2023-07-29T04:41:57;18.80;99.90
7516;DHT22;3799;47.184;8.538;2023-07-29T04:44:25;18.60;99.90
7516;DHT22;3799;47.184;8.538;2023-07-29T04:46:55;18.60;99.90
7516;DHT22;3799;47.184;8.538;2023-07-29T04:49:22;18.50;99.90
7516;DHT22;3799;47.184;8.538;2023-07-29T04:51:49;18.60;99.90
7516;DHT22;3799;47.184;8.538;2023-07-29T04:54:16;18.30;99.90
7516;DHT22;3799;47.184;8.538;2023-07-29T04:56:43;18.50;99.90
7516;DHT22;3799;47.184;8.538;2023-07-29T04:59:11;18.50;99.90
7516;DHT22;3799;47.184;8.538;2023-07-29T05:01:39;18.20;99.90
7516;DHT22;3799;47.184;8.538;2023-07-29T05:04:09;18.50;99.90
7516;DHT22;3799;47.184;8.538;2023-07-29T05:06:36;18.50;99.90
7516;DHT22;3799;47.184;8.538;2023-07-29T05:09:18;18.50;99.90
7516;DHT22;3799;47.184;8.538;2023-07-29T05:11:45;18.70;99.90
7516;DHT22;3799;47.184;8.538;2023-07-29T05:14:14;18.90;99.90
7516;DHT22;3799;47.184;8.538;2023-07-29T05:16:42;18.70;99.90
7516;DHT22;3799;47.184;8.538;2023-07-29T05:19:10;18.80;99.90
7516;DHT22;3799;47.184;8.538;2023-07-29T05:21:37;19.00;99.90
7516;DHT22;3799;47.184;8.538;2023-07-29T05:24:05;19.10;99.90
7516;DHT22;3799;47.184;8.538;2023-07-29T05:26:32;18.70;99.90
7516;DHT22;3799;47.184;8.538;2023-07-29T05:29:00;18.70;99.90
7516;DHT22;3799;47.184;8.538;2023-07-29T05:31:28;18.90;99.90
7516;DHT22;3799;47.184;8.538;2023-07-29T05:33:55;18.90;99.90
7516;DHT22;3799;47.184;8.538;2023-07-29T05:36:23;19.00;99.90
7516;DHT22;3799;47.184;8.538;2023-07-29T05:38:52;19.10;99.90
7516;DHT22;3799;47.184;8.538;2023-07-29T05:41:19;18.90;99.90
7516;DHT22;3799;47.184;8.538;2023-07-29T05:43:47;18.90;99.90
7516;DHT22;3799;47.184;8.538;2023-07-29T05:46:14;19.30;99.90
7516;DHT22;3799;47.184;8.538;2023-07-29T05:48:42;19.10;99.90
7516;DHT22;3799;47.184;8.538;2023-07-29T05:51:09;19.20;99.90
7516;DHT22;3799;47.184;8.538;2023-07-29T05:53:36;19.10;99.90
7516;DHT22;3799;47.184;8.538;2023-07-29T05:56:03;19.10;99.90
7516;DHT22;3799;47.184;8.538;2023-07-29T05:58:31;19.00;99.90
7516;DHT22;3799;47.184;8.538;2023-07-29T06:00:58;19.00;99.90
7516;DHT22;3799;47.184;8.538;2023-07-29T06:03:25;19.20;99.90
7516;DHT22;3799;47.184;8.538;2023-07-29T06:05:56;19.20;99.90
7516;DHT22;3799;47.184;8.538;2023-07-29T06:08:23;19.40;99.90
7516;DHT22;3799;47.184;8.538;2023-07-29T06:10:50;19.50;99.90
7516;DHT22;3799;47.184;8.538;2023-07-29T06:13:17;19.40;99.90
7516;DHT22;3799;47.184;8.538;2023-07-29T06:15:47;19.70;99.90
7516;DHT22;3799;47.184;8.538;2023-07-29T06:18:15;19.80;99.90
7516;DHT22;3799;47.184;8.538;2023-07-29T06:20:42;19.90;99.90
7516;DHT22;3799;47.184;8.538;2023-07-29T06:23:09;19.90;99.90
7516;DHT22;3799;47.184;8.538;2023-07-29T06:25:36;20.40;99.90
7516;DHT22;3799;47.184;8.538;2023-07-29T06:28:06;20.60;99.90
7516;DHT22;3799;47.184;8.538;2023-07-29T06:30:34;20.90;99.90
7516;DHT22;3799;47.184;8.538;2023-07-29T06:33:01;21.10;99.90
7516;DHT22;3799;47.184;8.538;2023-07-29T06:35:30;21.20;99.90
7516;DHT22;3799;47.184;8.538;2023-07-29T06:37:57;21.30;99.90
7516;DHT22;3799;47.184;8.538;2023-07-29T06:40:25;21.40;99.90
7516;DHT22;3799;47.184;8.538;2023-07-29T06:42:52;21.40;99.90
7516;DHT22;3799;47.184;8.538;2023-07-29T06:45:19;21.40;99.90
7516;DHT22;3799;47.184;8.538;2023-07-29T06:47:46;21.40;99.90
7516;DHT22;3799;47.184;8.538;2023-07-29T06:50:13;21.50;99.90
7516;DHT22;3799;47.184;8.538;2023-07-29T06:52:41;21.50;99.90
7516;DHT22;3799;47.184;8.538;2023-07-29T06:55:10;21.70;99.90
7516;DHT22;3799;47.184;8.538;2023-07-29T06:57:37;21.80;99.90
7516;DHT22;3799;47.184;8.538;2023-07-29T07:00:05;21.80;99.90
7516;DHT22;3799;47.184;8.538;2023-07-29T07:02:33;21.90;99.90
7516;DHT22;3799;47.184;8.538;2023-07-29T07:05:01;22.00;99.90
7516;DHT22;3799;47.184;8.538;2023-07-29T07:07:28;22.10;99.90
7516;DHT22;3799;47.184;8.538;2023-07-29T07:09:56;22.20;99.90
7516;DHT22;3799;47.184;8.538;2023-07-29T07:12:30;22.30;99.90
7516;DHT22;3799;47.184;8.538;2023-07-29T07:14:58;22.40;99.90
7516;DHT22;3799;47.184;8.538;2023-07-29T07:17:25;22.50;99.90
7516;DHT22;3799;47.184;8.538;2023-07-29T07:19:53;22.60;99.90
7516;DHT22;3799;47.184;8.538;2023-07-29T07:22:20;22.60;99.90
7516;DHT22;3799;47.184;8.538;2023-07-29T07:24:48;22.70;99.90
7516;DHT22;3799;47.184;8.538;2023-07-29T07:27:15;22.70;99.90
7516;DHT22;3799;47.184;8.538;2023-07-29T07:29:42;22.80;99.90
7516;DHT22;3799;47.184;8.538;2023-07-29T07:32:10;22.90;99.90
7516;DHT22;3799;47.184;8.538;2023-07-29T07:34:37;23.00;99.90
7516;DHT22;3799;47.184;8.538;2023-07-29T07:37:05;23.00;99.90
7516;DHT22;3799;47.184;8.538;2023-07-29T07:39:32;23.10;99.90
7516;DHT22;3799;47.184;8.538;2023-07-29T07:42:00;23.20;99.90
7516;DHT22;3799;47.184;8.538;2023-07-29T07:44:30;23.30;99.90
7516;DHT22;3799;47.184;8.538;2023-07-29T07:46:57;23.30;99.90
7516;DHT22;3799;47.184;8.538;2023-07-29T07:49:25;23.40;99.90
7516;DHT22;3799;47.184;8.538;2023-07-29T07:51:52;23.50;99.90
7516;DHT22;3799;47.184;8.538;2023-07-29T07:54:19;23.60;99.90
7516;DHT22;3799;47.184;8.538;2023-07-29T07:56:46;23.70;99.90
7516;DHT22;3799;47.184;8.538;2023-07-29T07:59:13;23.80;99.90
7516;DHT22;3799;47.184;8.538;2023-07-29T08:01:43;23.80;99.90
7516;DHT22;3799;47.184;8.538;2023-07-29T08:04:11;23.90;99.90
7516;DHT22;3799;47.184;8.538;2023-07-29T08:06:40;24.00;99.90
7516;DHT22;3799;47.184;8.538;2023-07-29T08:09:07;23.90;99.90
7516;DHT22;3799;47.184;8.538;2023-07-29T08:11:35;23.90;99.90
7516;DHT22;3799;47.184;8.538;2023-07-29T08:14:02;23.90;99.90
7516;DHT22;3799;47.184;8.538;2023-07-29T08:16:29;24.00;99.90
7516;DHT22;3799;47.184;8.538;2023-07-29T08:18:58;24.10;99.90
7516;DHT22;3799;47.184;8.538;2023-07-29T08:21:27;24.20;99.90
7516;DHT22;3799;47.184;8.538;2023-07-29T08:23:57;24.20;99.90
7516;DHT22;3799;47.184;8.538;2023-07-29T08:26:24;24.20;99.90
7516;DHT22;3799;47.184;8.538;2023-07-29T08:28:53;24.20;99.90
7516;DHT22;3799;47.184;8.538;2023-07-29T08:31:21;24.20;99.90
7516;DHT22;3799;47.184;8.538;2023-07-29T08:33:51;24.20;99.90
7516;DHT22;3799;47.184;8.538;2023-07-29T08:36:18;24.20;99.90
7516;DHT22;3799;47.184;8.538;2023-07-29T08:38:45;24.20;99.90
7516;DHT22;3799;47.184;8.538;2023-07-29T08:44:02;24.30;99.90
7516;DHT22;3799;47.184;8.538;2023-07-29T08:46:35;24.40;99.90
7516;DHT22;3799;47.184;8.538;2023-07-29T08:49:05;24.40;99.90
7516;DHT22;3799;47.184;8.538;2023-07-29T08:51:34;24.50;99.90
7516;DHT22;3799;47.184;8.538;2023-07-29T08:54:02;24.50;99.90
7516;DHT22;3799;47.184;8.538;2023-07-29T08:56:30;24.60;99.90
7516;DHT22;3799;47.184;8.538;2023-07-29T08:58:57;24.70;99.90
7516;DHT22;3799;47.184;8.538;2023-07-29T09:01:33;24.80;99.90
7516;DHT22;3799;47.184;8.538;2023-07-29T09:04:00;24.80;99.90
7516;DHT22;3799;47.184;8.538;2023-07-29T09:06:31;24.70;99.90
7516;DHT22;3799;47.184;8.538;2023-07-29T09:08:59;24.60;99.90
7516;DHT22;3799;47.184;8.538;2023-07-29T09:11:30;24.60;99.90
7516;DHT22;3799;47.184;8.538;2023-07-29T09:13:57;24.80;99.90
7516;DHT22;3799;47.184;8.538;2023-07-29T09:16:32;24.80;99.90
7516;DHT22;3799;47.184;8.538;2023-07-29T09:19:03;24.80;99.90
7516;DHT22;3799;47.184;8.538;2023-07-29T09:21:31;24.80;99.90
7516;DHT22;3799;47.184;8.538;2023-07-29T09:24:03;24.80;99.90
7516;DHT22;3799;47.184;8.538;2023-07-29T09:26:31;24.90;99.90
7516;DHT22;3799;47.184;8.538;2023-07-29T09:29:02;25.00;99.90
7516;DHT22;3799;47.184;8.538;2023-07-29T09:31:29;25.10;99.90
7516;DHT22;3799;47.184;8.538;2023-07-29T09:33:58;25.20;99.90
7516;DHT22;3799;47.184;8.538;2023-07-29T09:36:27;25.40;99.90
7516;DHT22;3799;47.184;8.538;2023-07-29T09:38:57;25.60;99.90
7516;DHT22;3799;47.184;8.538;2023-07-29T09:41:29;25.80;99.90
7516;DHT22;3799;47.184;8.538;2023-07-29T09:44:04;25.90;99.90
7516;DHT22;3799;47.184;8.538;2023-07-29T09:46:36;26.10;99.90
7516;DHT22;3799;47.184;8.538;2023-07-29T09:49:06;26.20;99.90
7516;DHT22;3799;47.184;8.538;2023-07-29T09:51:40;26.30;99.90
7516;DHT22;3799;47.184;8.538;2023-07-29T09:54:09;26.50;99.90
7516;DHT22;3799;47.184;8.538;2023-07-29T09:56:41;26.60;99.20
7516;DHT22;3799;47.184;8.538;2023-07-29T09:59:12;26.70;98.50
7516;DHT22;3799;47.184;8.538;2023-07-29T10:01:42;26.70;98.10
7516;DHT22;3799;47.184;8.538;2023-07-29T10:04:10;26.70;98.30
7516;DHT22;3799;47.184;8.538;2023-07-29T10:06:41;26.70;98.30
7516;DHT22;3799;47.184;8.538;2023-07-29T10:09:13;26.70;97.70
7516;DHT22;3799;47.184;8.538;2023-07-29T10:11:42;26.70;97.80
7516;DHT22;3799;47.184;8.538;2023-07-29T10:14:09;26.50;97.70
7516;DHT22;3799;47.184;8.538;2023-07-29T10:16:43;26.40;97.50
7516;DHT22;3799;47.184;8.538;2023-07-29T10:19:13;26.30;97.80
7516;DHT22;3799;47.184;8.538;2023-07-29T10:21:48;26.20;98.50
7516;DHT22;3799;47.184;8.538;2023-07-29T10:24:24;26.20;99.10
7516;DHT22;3799;47.184;8.538;2023-07-29T10:27:00;26.30;99.30
7516;DHT22;3799;47.184;8.538;2023-07-29T10:29:38;26.60;98.50
7516;DHT22;3799;47.184;8.538;2023-07-29T10:32:07;26.80;98.20
7516;DHT22;3799;47.184;8.538;2023-07-29T10:34:39;27.10;97.40
7516;DHT22;3799;47.184;8.538;2023-07-29T10:37:07;27.50;96.40
7516;DHT22;3799;47.184;8.538;2023-07-29T10:39:39;27.60;94.40
7516;DHT22;3799;47.184;8.538;2023-07-29T10:42:07;27.60;93.30
7516;DHT22;3799;47.184;8.538;2023-07-29T10:47:25;27.70;92.90
7516;DHT22;3799;47.184;8.538;2023-07-29T10:49:56;28.00;92.20
7516;DHT22;3799;47.184;8.538;2023-07-29T10:54:58;28.40;90.30
7516;DHT22;3799;47.184;8.538;2023-07-29T10:57:34;28.50;88.20
7516;DHT22;3799;47.184;8.538;2023-07-29T11:00:02;28.70;85.90
7516;DHT22;3799;47.184;8.538;2023-07-29T11:02:38;28.80;84.80
7516;DHT22;3799;47.184;8.538;2023-07-29T11:05:16;29.00;82.10
7516;DHT22;3799;47.184;8.538;2023-07-29T11:07:48;29.20;78.50
7516;DHT22;3799;47.184;8.538;2023-07-29T11:10:18;29.40;78.00
7516;DHT22;3799;47.184;8.538;2023-07-29T11:12:51;29.40;75.40
7516;DHT22;3799;47.184;8.538;2023-07-29T11:15:24;29.40;74.20
7516;DHT22;3799;47.184;8.538;2023-07-29T11:18:01;29.40;73.00
7516;DHT22;3799;47.184;8.538;2023-07-29T11:20:33;29.40;72.00
7516;DHT22;3799;47.184;8.538;2023-07-29T11:23:02;29.70;71.60
7516;DHT22;3799;47.184;8.538;2023-07-29T11:25:33;29.90;69.80
7516;DHT22;3799;47.184;8.538;2023-07-29T11:28:03;30.00;69.40
7516;DHT22;3799;47.184;8.538;2023-07-29T11:30:39;30.20;68.40
7516;DHT22;3799;47.184;8.538;2023-07-29T11:33:06;30.40;66.20
7516;DHT22;3799;47.184;8.538;2023-07-29T11:35:34;30.60;63.20
7516;DHT22;3799;47.184;8.538;2023-07-29T11:38:01;30.50;62.20
7516;DHT22;3799;47.184;8.538;2023-07-29T11:40:29;30.20;62.70
7516;DHT22;3799;47.184;8.538;2023-07-29T11:42:56;29.90;64.10
7516;DHT22;3799;47.184;8.538;2023-07-29T11:45:26;29.60;64.70
7516;DHT22;3799;47.184;8.538;2023-07-29T11:48:17;29.40;66.90
7516;DHT22;3799;47.184;8.538;2023-07-29T11:50:48;29.10;65.30
7516;DHT22;3799;47.184;8.538;2023-07-29T11:53:15;28.80;66.30
7516;DHT22;3799;47.184;8.538;2023-07-29T11:55:43;28.60;71.10
7516;DHT22;3799;47.184;8.538;2023-07-29T11:58:10;28.50;76.40
7516;DHT22;3799;47.184;8.538;2023-07-29T12:00:38;28.50;76.60
7516;DHT22;3799;47.184;8.538;2023-07-29T12:03:06;28.40;77.50
7516;DHT22;3799;47.184;8.538;2023-07-29T12:05:35;28.20;78.30
7516;DHT22;3799;47.184;8.538;2023-07-29T12:08:07;28.00;80.70
7516;DHT22;3799;47.184;8.538;2023-07-29T12:10:35;27.80;83.40
7516;DHT22;3799;47.184;8.538;2023-07-29T12:13:03;27.70;85.20
7516;DHT22;3799;47.184;8.538;2023-07-29T12:15:30;27.50;87.10
7516;DHT22;3799;47.184;8.538;2023-07-29T12:17:58;27.30;89.70
7516;DHT22;3799;47.184;8.538;2023-07-29T12:20:26;27.10;91.20
7516;DHT22;3799;47.184;8.538;2023-07-29T12:22:59;26.90;91.90
7516;DHT22;3799;47.184;8.538;2023-07-29T12:25:32;26.70;91.60
7516;DHT22;3799;47.184;8.538;2023-07-29T12:28:06;26.70;92.20
7516;DHT22;3799;47.184;8.538;2023-07-29T12:30:42;26.60;92.60
7516;DHT22;3799;47.184;8.538;2023-07-29T12:33:09;26.50;92.40
7516;DHT22;3799;47.184;8.538;2023-07-29T12:35:39;26.50;92.10
7516;DHT22;3799;47.184;8.538;2023-07-29T12:38:08;26.50;91.60
7516;DHT22;3799;47.184;8.538;2023-07-29T12:40:38;26.50;90.60
7516;DHT22;3799;47.184;8.538;2023-07-29T12:43:07;26.40;90.90
7516;DHT22;3799;47.184;8.538;2023-07-29T12:45:37;26.40;92.70
7516;DHT22;3799;47.184;8.538;2023-07-29T12:48:08;26.30;93.60
7516;DHT22;3799;47.184;8.538;2023-07-29T12:50:38;26.10;94.90
7516;DHT22;3799;47.184;8.538;2023-07-29T12:53:07;25.90;96.10
7516;DHT22;3799;47.184;8.538;2023-07-29T12:55:34;25.70;97.10
7516;DHT22;3799;47.184;8.538;2023-07-29T12:58:02;25.60;97.70
7516;DHT22;3799;47.184;8.538;2023-07-29T13:00:33;25.40;98.40
7516;DHT22;3799;47.184;8.538;2023-07-29T13:03:00;25.20;99.60
7516;DHT22;3799;47.184;8.538;2023-07-29T13:05:31;25.00;98.90
7516;DHT22;3799;47.184;8.538;2023-07-29T13:07:58;24.80;99.80
7516;DHT22;3799;47.184;8.538;2023-07-29T13:10:29;24.60;99.90
7516;DHT22;3799;47.184;8.538;2023-07-29T13:12:56;24.50;99.90
7516;DHT22;3799;47.184;8.538;2023-07-29T13:15:29;24.40;99.90
7516;DHT22;3799;47.184;8.538;2023-07-29T13:17:56;24.30;99.90
7516;DHT22;3799;47.184;8.538;2023-07-29T13:20:24;24.20;99.90
7516;DHT22;3799;47.184;8.538;2023-07-29T13:22:52;24.00;99.90
7516;DHT22;3799;47.184;8.538;2023-07-29T13:25:37;23.90;99.90
7516;DHT22;3799;47.184;8.538;2023-07-29T13:28:06;23.90;99.90
7516;DHT22;3799;47.184;8.538;2023-07-29T13:30:34;23.80;99.90
7516;DHT22;3799;47.184;8.538;2023-07-29T13:33:04;23.80;99.90
7516;DHT22;3799;47.184;8.538;2023-07-29T13:35:34;23.70;99.90
7516;DHT22;3799;47.184;8.538;2023-07-29T13:38:02;23.70;99.90
7516;DHT22;3799;47.184;8.538;2023-07-29T13:40:29;23.60;99.90
7516;DHT22;3799;47.184;8.538;2023-07-29T13:42:56;23.50;99.90
7516;DHT22;3799;47.184;8.538;2023-07-29T13:45:24;23.40;99.90
7516;DHT22;3799;47.184;8.538;2023-07-29T13:47:51;23.30;99.90
7516;DHT22;3799;47.184;8.538;2023-07-29T13:50:19;23.30;99.90
7516;DHT22;3799;47.184;8.538;2023-07-29T13:52:46;23.10;99.90
7516;DHT22;3799;47.184;8.538;2023-07-29T13:55:14;23.00;99.90
7516;DHT22;3799;47.184;8.538;2023-07-29T13:57:43;22.90;99.90
7516;DHT22;3799;47.184;8.538;2023-07-29T14:00:10;22.80;99.90
7516;DHT22;3799;47.184;8.538;2023-07-29T14:02:38;22.60;99.90
7516;DHT22;3799;47.184;8.538;2023-07-29T14:05:06;22.50;99.90
7516;DHT22;3799;47.184;8.538;2023-07-29T14:07:34;22.30;99.90
7516;DHT22;3799;47.184;8.538;2023-07-29T14:10:04;22.20;99.90
7516;DHT22;3799;47.184;8.538;2023-07-29T14:12:34;22.10;99.90
7516;DHT22;3799;47.184;8.538;2023-07-29T14:15:02;22.10;99.90
7516;DHT22;3799;47.184;8.538;2023-07-29T14:17:30;22.10;99.90
7516;DHT22;3799;47.184;8.538;2023-07-29T14:19:58;22.00;99.90
7516;DHT22;3799;47.184;8.538;2023-07-29T14:22:25;22.00;99.90
7516;DHT22;3799;47.184;8.538;2023-07-29T14:24:53;21.80;99.90
7516;DHT22;3799;47.184;8.538;2023-07-29T14:27:20;21.80;99.90
7516;DHT22;3799;47.184;8.538;2023-07-29T14:29:49;21.80;99.90
7516;DHT22;3799;47.184;8.538;2023-07-29T14:32:20;21.90;99.90
7516;DHT22;3799;47.184;8.538;2023-07-29T14:34:49;21.90;99.90
7516;DHT22;3799;47.184;8.538;2023-07-29T14:37:17;22.00;99.90
7516;DHT22;3799;47.184;8.538;2023-07-29T14:39:44;22.00;99.90
7516;DHT22;3799;47.184;8.538;2023-07-29T14:42:11;22.00;99.90
7516;DHT22;3799;47.184;8.538;2023-07-29T14:44:42;22.00;99.90
7516;DHT22;3799;47.184;8.538;2023-07-29T14:47:09;22.00;99.90
7516;DHT22;3799;47.184;8.538;2023-07-29T14:49:39;22.00;99.90
7516;DHT22;3799;47.184;8.538;2023-07-29T14:52:09;22.00;99.90
7516;DHT22;3799;47.184;8.538;2023-07-29T14:54:37;21.90;99.90
7516;DHT22;3799;47.184;8.538;2023-07-29T14:57:06;21.90;99.90
7516;DHT22;3799;47.184;8.538;2023-07-29T14:59:36;21.90;99.90
7516;DHT22;3799;47.184;8.538;2023-07-29T15:02:06;22.00;99.90
7516;DHT22;3799;47.184;8.538;2023-07-29T15:04:35;22.00;99.90
7516;DHT22;3799;47.184;8.538;2023-07-29T15:07:03;22.00;99.90
7516;DHT22;3799;47.184;8.538;2023-07-29T15:09:34;22.00;99.90
7516;DHT22;3799;47.184;8.538;2023-07-29T15:12:05;22.00;99.90
7516;DHT22;3799;47.184;8.538;2023-07-29T15:14:34;22.00;99.90
7516;DHT22;3799;47.184;8.538;2023-07-29T15:17:01;22.10;99.90
7516;DHT22;3799;47.184;8.538;2023-07-29T15:19:29;22.10;99.90
7516;DHT22;3799;47.184;8.538;2023-07-29T15:21:56;22.20;99.90
7516;DHT22;3799;47.184;8.538;2023-07-29T15:24:23;22.20;99.90
7516;DHT22;3799;47.184;8.538;2023-07-29T15:26:51;22.20;99.90
7516;DHT22;3799;47.184;8.538;2023-07-29T15:29:21;22.20;99.90
7516;DHT22;3799;47.184;8.538;2023-07-29T15:31:48;22.30;99.90
7516;DHT22;3799;47.184;8.538;2023-07-29T15:34:19;22.20;99.90
7516;DHT22;3799;47.184;8.538;2023-07-29T15:36:50;22.20;99.90
7516;DHT22;3799;47.184;8.538;2023-07-29T15:39:18;22.20;99.90
7516;DHT22;3799;47.184;8.538;2023-07-29T15:41:45;22.20;99.90
7516;DHT22;3799;47.184;8.538;2023-07-29T15:44:16;22.20;99.90
7516;DHT22;3799;47.184;8.538;2023-07-29T15:46:43;22.20;99.90
7516;DHT22;3799;47.184;8.538;2023-07-29T15:49:11;22.20;99.90
7516;DHT22;3799;47.184;8.538;2023-07-29T15:51:38;22.20;99.90
7516;DHT22;3799;47.184;8.538;2023-07-29T15:54:05;22.20;99.90
7516;DHT22;3799;47.184;8.538;2023-07-29T15:56:32;22.10;99.90
7516;DHT22;3799;47.184;8.538;2023-07-29T15:59:03;22.10;99.90
7516;DHT22;3799;47.184;8.538;2023-07-29T16:01:36;22.10;99.90
7516;DHT22;3799;47.184;8.538;2023-07-29T16:04:04;22.10;99.90
7516;DHT22;3799;47.184;8.538;2023-07-29T16:06:32;22.00;99.90
7516;DHT22;3799;47.184;8.538;2023-07-29T16:08:59;21.90;99.90
7516;DHT22;3799;47.184;8.538;2023-07-29T16:11:33;21.90;99.90
7516;DHT22;3799;47.184;8.538;2023-07-29T16:14:03;21.80;99.90
7516;DHT22;3799;47.184;8.538;2023-07-29T16:16:30;21.70;99.90
7516;DHT22;3799;47.184;8.538;2023-07-29T16:18:58;21.70;99.90
7516;DHT22;3799;47.184;8.538;2023-07-29T16:21:25;21.60;99.90
7516;DHT22;3799;47.184;8.538;2023-07-29T16:23:52;21.50;99.90
7516;DHT22;3799;47.184;8.538;2023-07-29T16:26:20;21.40;99.90